Main page
METAR-TAF:

METAR-TAF

Airports :

N'Djamena, Chad

N'Djamena International Airport

latitude: 12-08N, longitude: 015-02E, elevation: 295 m

Current weather observation

The report was made 1 hour and 2 minutes ago, at 11:00 UTC
Wind 4 kt from the West, varying between South and Northwest
Temperature 37°C
Humidity 31%
Pressure 1009 hPa
Visibility 10 km or more
no clouds below 1500 m and no cumulonimbus

METAR: FTTJ 261100Z 26004KT 170V320 CAVOK 37/17 Q1009 NOSIG

Time: 13:02 (12:02 UTC)


TAF: missing

Weather observations and forecasts of more than 4000 airports (METAR and TAF reports).

The available stations are represented by yellow and red dots on the map.

Hover mouse over dot to see the name of the station.

Then click to see weather observations and forecasts.

To change the map : click on the green buttons with a black cross to zoom in, on the green button with a dash to zoom out, or on the green arrows for adjacent maps.


METAR-TAF: